Time;durP1;ratioP1;P1;durP2;ratioP2;P2;SDS_P1;SDS_P2;PMS_P1;PMS_P2;Temp;Humidity;BMP_temperature;BMP_pressure;BME280_temperature;BME280_humidity;BME280_pressure;Samples;Min_cycle;Max_cycle;Signal;HPM_P1;HPM_P2
2024/04/04 00:02:22;;;;;;;4.35;1.20;;;11.80;99.90;;;;;;4981406;28;20035;-89
2024/04/04 00:04:58;;;;;;;5.22;1.30;;;11.80;99.90;;;;;;4981357;28;20054;-88
2024/04/04 00:07:24;;;;;;;4.05;1.08;;;11.70;99.90;;;;;;4965970;28;20093;-89
2024/04/04 00:09:51;;;;;;;4.32;1.30;;;11.70;99.90;;;;;;4966095;28;20027;-88
2024/04/04 00:12:19;;;;;;;4.22;0.93;;;11.70;99.90;;;;;;4983554;28;20522;-88
2024/04/04 00:14:45;;;;;;;3.75;1.15;;;11.60;99.90;;;;;;4988410;28;20036;-87
2024/04/04 00:17:11;;;;;;;4.63;1.13;;;11.60;99.90;;;;;;4990072;28;20034;-89
2024/04/04 00:19:37;;;;;;;5.55;1.40;;;11.60;99.90;;;;;;4972411;28;20110;-88
2024/04/04 00:22:03;;;;;;;8.20;1.58;;;11.50;99.90;;;;;;4983266;28;20030;-87
2024/04/04 00:24:28;;;;;;;6.47;1.58;;;11.50;99.90;;;;;;4966039;28;20496;-88
2024/04/04 00:26:54;;;;;;;3.00;1.13;;;11.50;99.90;;;;;;4980763;28;20060;-88
2024/04/04 00:29:20;;;;;;;4.22;1.20;;;11.50;99.90;;;;;;4964551;28;20033;-89
2024/04/04 00:31:45;;;;;;;5.28;1.13;;;11.50;99.90;;;;;;4997610;28;20039;-90
2024/04/04 00:34:11;;;;;;;4.28;1.13;;;11.50;99.90;;;;;;4981060;28;20030;-90
2024/04/04 00:36:37;;;;;;;2.35;1.00;;;11.50;99.90;;;;;;4980168;28;20478;-88
2024/04/04 00:39:04;;;;;;;3.85;1.13;;;11.40;99.90;;;;;;4963793;28;20034;-87
2024/04/04 00:41:30;;;;;;;3.97;1.17;;;11.40;99.90;;;;;;4997470;28;20022;-88
2024/04/04 00:43:55;;;;;;;3.72;1.10;;;11.40;99.90;;;;;;4980271;28;20194;-87
2024/04/04 00:46:22;;;;;;;6.00;1.23;;;11.30;99.90;;;;;;4980559;28;20030;-88
2024/04/04 00:48:48;;;;;;;2.33;0.98;;;11.30;99.90;;;;;;5008979;28;20501;-89
2024/04/04 00:51:14;;;;;;;3.85;1.15;;;11.30;99.90;;;;;;4983585;28;20037;-89
2024/04/04 00:53:41;;;;;;;3.10;1.08;;;11.30;99.90;;;;;;4999379;28;20030;-87
2024/04/04 00:56:07;;;;;;;3.50;0.93;;;11.30;99.90;;;;;;4983514;28;20026;-88
2024/04/04 00:58:35;;;;;;;3.10;1.35;;;11.30;99.90;;;;;;5016702;28;20113;-89
2024/04/04 01:01:01;;;;;;;4.43;1.25;;;11.30;99.90;;;;;;4999347;28;20030;-89
2024/04/04 01:03:26;;;;;;;5.10;1.15;;;11.20;99.90;;;;;;4999372;28;20493;-87
2024/04/04 01:05:52;;;;;;;5.93;1.23;;;11.30;99.90;;;;;;5000319;28;20025;-88
2024/04/04 01:08:19;;;;;;;3.15;1.00;;;11.30;99.90;;;;;;5001782;28;20038;-88
2024/04/04 01:10:44;;;;;;;3.13;0.98;;;11.20;99.90;;;;;;4986320;28;20030;-88
2024/04/04 01:13:10;;;;;;;5.97;1.30;;;11.20;99.90;;;;;;5002357;28;20033;-88
2024/04/04 01:15:36;;;;;;;3.33;1.23;;;11.20;99.90;;;;;;4986596;28;20029;-89
2024/04/04 01:18:01;;;;;;;3.95;0.95;;;11.20;99.90;;;;;;4985401;28;20030;-88
2024/04/04 01:20:27;;;;;;;3.72;0.93;;;11.20;99.90;;;;;;4999868;28;20503;-89
2024/04/04 01:22:53;;;;;;;3.53;0.88;;;11.20;99.90;;;;;;5000547;28;20169;-86
2024/04/04 01:25:18;;;;;;;2.83;1.10;;;11.20;99.90;;;;;;5000563;28;20029;-88
2024/04/04 01:27:48;;;;;;;2.00;0.98;;;11.20;99.90;;;;;;4999518;28;20041;-86
2024/04/04 01:30:14;;;;;;;6.55;1.30;;;11.20;99.90;;;;;;4983392;28;20065;-89
2024/04/04 01:32:39;;;;;;;5.65;1.40;;;11.20;99.90;;;;;;4999335;28;20033;-89
2024/04/04 01:35:05;;;;;;;3.78;1.08;;;11.20;99.90;;;;;;4982693;28;20026;-88
2024/04/04 01:37:31;;;;;;;6.63;1.20;;;11.20;99.90;;;;;;4999245;28;20046;-89
2024/04/04 01:39:56;;;;;;;4.25;1.15;;;11.20;99.90;;;;;;4982958;28;20041;-88
2024/04/04 01:42:22;;;;;;;5.43;1.42;;;11.20;99.90;;;;;;4999532;28;20544;-88
2024/04/04 01:44:48;;;;;;;5.20;1.23;;;11.20;99.90;;;;;;4999655;28;20525;-88
2024/04/04 01:47:13;;;;;;;5.63;1.42;;;11.30;99.90;;;;;;5003025;28;20034;-88
2024/04/04 01:49:41;;;;;;;4.55;1.20;;;11.30;99.90;;;;;;5005511;28;20066;-88
2024/04/04 01:52:07;;;;;;;3.17;0.77;;;11.30;99.90;;;;;;5021945;28;20014;-88
2024/04/04 01:54:33;;;;;;;4.20;1.20;;;11.40;99.90;;;;;;5005723;28;20089;-88
2024/04/04 01:56:59;;;;;;;2.70;0.90;;;11.40;99.90;;;;;;5016369;28;20026;-88
2024/04/04 01:59:24;;;;;;;3.78;1.02;;;11.40;99.90;;;;;;4983010;28;20038;-88
2024/04/04 02:01:50;;;;;;;3.85;1.00;;;11.50;99.90;;;;;;4981950;28;20033;-88
2024/04/04 02:04:16;;;;;;;5.00;1.10;;;11.50;99.90;;;;;;4982025;28;20030;-88
2024/04/04 02:06:41;;;;;;;2.83;1.10;;;11.50;99.90;;;;;;4997599;28;20026;-88
2024/04/04 02:09:07;;;;;;;4.35;1.10;;;11.60;99.90;;;;;;4997643;28;20029;-88
2024/04/04 02:11:34;;;;;;;3.95;0.93;;;11.60;99.90;;;;;;4997651;28;20105;-88
2024/04/04 02:14:00;;;;;;;5.30;1.10;;;11.60;99.90;;;;;;4981239;28;20026;-88
2024/04/04 02:16:26;;;;;;;4.07;1.35;;;11.60;99.90;;;;;;4997230;28;20503;-86
2024/04/04 02:18:51;;;;;;;4.43;1.08;;;11.60;99.90;;;;;;4997517;28;20045;-88
2024/04/04 02:21:17;;;;;;;3.92;1.05;;;11.70;99.90;;;;;;5015032;28;20486;-87
2024/04/04 02:23:43;;;;;;;4.72;1.05;;;11.70;99.90;;;;;;4980925;28;20041;-85
2024/04/04 02:26:09;;;;;;;3.33;1.20;;;11.70;99.90;;;;;;4980092;28;20026;-88
2024/04/04 02:28:35;;;;;;;5.45;1.50;;;11.70;99.90;;;;;;4979978;28;20124;-87
2024/04/04 02:31:03;;;;;;;5.10;1.50;;;11.70;99.90;;;;;;5013735;28;20433;-87
2024/04/04 02:33:29;;;;;;;3.65;1.15;;;11.70;99.90;;;;;;4996743;28;20029;-88
2024/04/04 02:35:56;;;;;;;6.15;1.30;;;11.80;99.90;;;;;;4997051;28;20041;-88
2024/04/04 02:38:23;;;;;;;3.50;1.33;;;11.70;99.90;;;;;;4997093;28;20108;-88
2024/04/04 02:40:49;;;;;;;2.40;1.30;;;11.70;99.90;;;;;;5014891;28;20458;-88
2024/04/04 02:43:18;;;;;;;4.25;1.20;;;11.80;99.90;;;;;;4997469;28;20101;-89
2024/04/04 02:45:44;;;;;;;2.65;1.00;;;11.80;99.90;;;;;;4997497;28;20034;-87
2024/04/04 02:48:11;;;;;;;3.47;1.02;;;11.80;99.90;;;;;;4990184;28;20046;-88
2024/04/04 02:50:39;;;;;;;5.55;1.17;;;11.80;99.90;;;;;;4995182;28;20036;-87
2024/04/04 02:53:05;;;;;;;4.03;1.10;;;11.80;99.90;;;;;;4963438;28;20030;-89
2024/04/04 02:55:34;;;;;;;4.65;1.48;;;11.80;99.90;;;;;;4980899;28;20117;-88
2024/04/04 02:58:00;;;;;;;3.35;1.15;;;11.90;99.90;;;;;;4995274;28;20030;-87
2024/04/04 03:00:25;;;;;;;3.58;1.00;;;11.90;99.90;;;;;;4979108;28;20073;-88
2024/04/04 03:02:51;;;;;;;2.88;1.23;;;11.90;99.90;;;;;;4996559;28;20085;-88
2024/04/04 03:05:17;;;;;;;2.80;1.00;;;11.90;99.90;;;;;;4979117;28;20038;-88
2024/04/04 03:07:42;;;;;;;3.53;0.95;;;11.90;99.90;;;;;;4996772;28;20048;-88
2024/04/04 03:10:11;;;;;;;2.83;1.40;;;11.90;99.90;;;;;;4979888;28;20379;-89
2024/04/04 03:12:37;;;;;;;3.75;1.10;;;11.90;99.90;;;;;;4963234;28;20050;-89
2024/04/04 03:15:03;;;;;;;2.45;0.88;;;11.90;99.90;;;;;;4979927;28;20031;-88
2024/04/04 03:17:29;;;;;;;3.67;1.10;;;11.90;99.90;;;;;;4994117;28;20014;-88
2024/04/04 03:19:57;;;;;;;2.90;1.25;;;11.80;99.90;;;;;;5001582;28;20053;-88
2024/04/04 03:22:22;;;;;;;2.25;0.80;;;11.80;99.90;;;;;;5001638;28;20011;-88
2024/04/04 03:24:48;;;;;;;3.70;0.95;;;11.80;99.90;;;;;;4985519;28;20026;-89
2024/04/04 03:27:14;;;;;;;2.75;1.10;;;11.80;99.90;;;;;;5001234;28;20022;-88
2024/04/04 03:29:42;;;;;;;3.22;0.88;;;11.80;99.90;;;;;;5001336;28;20018;-90
2024/04/04 03:32:08;;;;;;;3.03;1.05;;;11.80;99.90;;;;;;4989549;28;20022;-89
2024/04/04 03:34:33;;;;;;;2.08;0.90;;;11.80;99.90;;;;;;4978242;28;20084;-89
2024/04/04 03:36:59;;;;;;;2.83;1.33;;;11.80;99.90;;;;;;4994839;28;20058;-88
2024/04/04 03:39:25;;;;;;;3.45;0.85;;;11.80;99.90;;;;;;4978110;28;20034;-88
2024/04/04 03:41:50;;;;;;;2.67;1.10;;;11.80;99.90;;;;;;4977173;28;20497;-88
2024/04/04 03:44:16;;;;;;;1.85;1.00;;;11.80;99.90;;;;;;4997547;28;20030;-89
2024/04/04 03:46:42;;;;;;;3.50;1.13;;;11.80;99.90;;;;;;4964877;28;20088;-90
2024/04/04 03:49:07;;;;;;;2.78;1.08;;;11.80;99.90;;;;;;4980752;28;20129;-90
2024/04/04 03:51:33;;;;;;;2.47;1.25;;;11.80;99.90;;;;;;4980795;28;20121;-88
2024/04/04 03:54:02;;;;;;;2.83;1.33;;;11.80;99.90;;;;;;4965109;28;20026;-88
2024/04/04 03:56:27;;;;;;;3.40;0.85;;;11.80;99.90;;;;;;4965430;28;20026;-89
2024/04/04 03:58:53;;;;;;;1.35;0.82;;;11.80;99.90;;;;;;4998229;28;20526;-89
2024/04/04 04:01:19;;;;;;;4.68;1.10;;;11.80;99.90;;;;;;4980707;28;20032;-90
2024/04/04 04:03:44;;;;;;;3.40;0.95;;;11.80;99.90;;;;;;4981245;28;20038;-89
2024/04/04 04:06:10;;;;;;;2.42;0.95;;;11.80;99.90;;;;;;4980927;28;20081;-90
2024/04/04 04:08:35;;;;;;;3.25;1.10;;;11.80;99.90;;;;;;4980978;28;20081;-89
2024/04/04 04:11:01;;;;;;;3.80;1.20;;;11.80;99.90;;;;;;4981009;28;20027;-90
2024/04/04 04:13:27;;;;;;;1.48;0.80;;;11.80;99.90;;;;;;4980786;28;20027;-90
2024/04/04 04:15:57;;;;;;;3.67;1.35;;;11.80;99.90;;;;;;4964129;28;20037;-88
2024/04/04 04:18:28;;;;;;;2.03;0.90;;;11.90;99.90;;;;;;4980755;28;20034;-90
2024/04/04 04:23:40;;;;;;;3.40;1.00;;;11.80;99.90;;;;;;4983558;28;20057;-90
2024/04/04 04:26:06;;;;;;;1.63;0.93;;;11.90;99.90;;;;;;4980660;28;20058;-88
2024/04/04 04:28:32;;;;;;;2.45;1.10;;;11.80;99.90;;;;;;4980781;28;20463;-89
2024/04/04 04:30:57;;;;;;;3.60;1.63;;;11.80;99.90;;;;;;4997390;28;20034;-88
2024/04/04 04:33:23;;;;;;;2.80;1.42;;;11.90;99.90;;;;;;4963821;28;20765;-89
2024/04/04 04:35:49;;;;;;;1.83;1.13;;;11.80;99.90;;;;;;4979469;28;20030;-89
2024/04/04 04:38:14;;;;;;;6.70;1.20;;;11.80;99.90;;;;;;4963363;28;20042;-88
2024/04/04 04:40:41;;;;;;;1.35;0.90;;;11.70;99.90;;;;;;4980342;28;20109;-88
2024/04/04 04:43:08;;;;;;;3.78;1.40;;;11.80;99.90;;;;;;4963848;28;20034;-90
2024/04/04 04:45:34;;;;;;;3.22;1.30;;;11.80;99.90;;;;;;4980053;28;20019;-89
2024/04/04 04:48:01;;;;;;;2.10;1.30;;;11.80;99.90;;;;;;4979724;28;20061;-89
2024/04/04 04:50:26;;;;;;;2.58;1.35;;;11.90;99.90;;;;;;4980145;28;20030;-89
2024/04/04 04:52:52;;;;;;;2.97;1.40;;;11.90;99.90;;;;;;4982008;28;20029;-90
2024/04/04 04:55:17;;;;;;;2.95;1.23;;;11.90;99.90;;;;;;4968968;28;20028;-88
2024/04/04 04:57:43;;;;;;;4.30;1.58;;;11.90;99.90;;;;;;5020201;28;20034;-89
2024/04/04 05:00:11;;;;;;;2.67;1.35;;;11.90;99.90;;;;;;4986996;28;20015;-86
2024/04/04 05:02:38;;;;;;;3.13;1.30;;;11.90;99.90;;;;;;5002441;28;20023;-87
2024/04/04 05:05:19;;;;;;;2.15;1.48;;;11.80;99.90;;;;;;5010947;28;20029;-89
2024/04/04 05:07:45;;;;;;;3.22;1.42;;;11.90;99.90;;;;;;4981283;28;20045;-88
2024/04/04 05:10:11;;;;;;;1.27;1.10;;;11.90;99.90;;;;;;4980936;28;20019;-87
2024/04/04 05:12:37;;;;;;;2.53;1.38;;;11.90;99.90;;;;;;4979365;28;20030;-88
2024/04/04 05:15:03;;;;;;;2.50;1.40;;;11.90;99.90;;;;;;4980187;28;20023;-90
2024/04/04 05:17:31;;;;;;;2.47;1.08;;;11.90;99.90;;;;;;4979217;28;20026;-90
2024/04/04 05:19:56;;;;;;;2.53;1.48;;;11.90;99.90;;;;;;4979047;28;20030;-90
2024/04/04 05:22:22;;;;;;;4.13;1.48;;;11.90;99.90;;;;;;4979111;28;20034;-90
2024/04/04 05:24:48;;;;;;;3.10;1.33;;;12.00;99.90;;;;;;4979198;28;20034;-91
2024/04/04 05:27:14;;;;;;;2.67;1.30;;;12.00;99.90;;;;;;4996291;28;20152;-90
2024/04/04 05:29:41;;;;;;;3.63;1.23;;;12.00;99.90;;;;;;4979129;28;20138;-90
2024/04/04 05:32:07;;;;;;;3.63;1.42;;;12.00;99.90;;;;;;4979400;28;20026;-90
2024/04/04 05:34:32;;;;;;;5.43;1.50;;;12.10;99.90;;;;;;4979341;28;20339;-90
2024/04/04 05:36:58;;;;;;;2.53;1.20;;;12.10;99.90;;;;;;4979372;28;20033;-91
2024/04/04 05:39:24;;;;;;;2.25;1.33;;;12.10;99.90;;;;;;4979255;28;20030;-89
2024/04/04 05:41:51;;;;;;;2.25;1.13;;;12.10;99.90;;;;;;4978994;28;20019;-89
2024/04/04 05:44:17;;;;;;;3.97;1.60;;;12.10;99.90;;;;;;4979464;28;20030;-91
2024/04/04 05:46:43;;;;;;;3.97;1.52;;;12.20;99.90;;;;;;4978461;28;20481;-90
2024/04/04 05:49:09;;;;;;;2.72;1.15;;;12.20;99.90;;;;;;4978808;28;20140;-89
2024/04/04 05:51:34;;;;;;;2.35;1.27;;;12.20;99.90;;;;;;4995912;28;20050;-90
2024/04/04 05:54:00;;;;;;;4.50;1.67;;;12.30;99.90;;;;;;4978508;28;20022;-89
2024/04/04 05:56:26;;;;;;;3.40;1.40;;;12.30;99.90;;;;;;4978402;28;20549;-90
2024/04/04 05:58:51;;;;;;;4.00;1.35;;;12.30;99.90;;;;;;4978777;28;20081;-89
2024/04/04 06:01:17;;;;;;;6.65;1.95;;;12.30;99.90;;;;;;4978590;28;20034;-90
2024/04/04 06:03:43;;;;;;;4.28;1.40;;;12.30;99.90;;;;;;4962715;28;20037;-89
2024/04/04 06:06:11;;;;;;;3.35;1.20;;;12.30;99.90;;;;;;4978775;28;20030;-89
2024/04/04 06:08:38;;;;;;;4.28;1.40;;;12.40;99.90;;;;;;4978792;28;20026;-90
2024/04/04 06:11:04;;;;;;;2.80;1.60;;;12.40;99.90;;;;;;4996041;28;20030;-90
2024/04/04 06:13:30;;;;;;;4.85;1.20;;;12.40;99.90;;;;;;4978194;28;20180;-92
2024/04/04 06:15:55;;;;;;;4.72;1.90;;;12.40;99.90;;;;;;4978875;28;20062;-89
2024/04/04 06:18:21;;;;;;;2.45;1.13;;;12.50;99.90;;;;;;4962361;28;20467;-90
2024/04/04 06:20:47;;;;;;;3.38;1.50;;;12.50;99.90;;;;;;4979157;28;20026;-89
2024/04/04 06:23:13;;;;;;;2.50;1.30;;;12.50;99.90;;;;;;4962902;28;20038;-91
2024/04/04 06:25:39;;;;;;;3.75;1.48;;;12.50;99.90;;;;;;4962653;28;20034;-89
2024/04/04 06:28:04;;;;;;;4.68;1.60;;;12.50;99.90;;;;;;4979458;28;20041;-91
2024/04/04 06:30:33;;;;;;;5.70;1.48;;;12.50;99.90;;;;;;4987046;28;20007;-89
2024/04/04 06:32:58;;;;;;;3.33;1.30;;;12.50;99.90;;;;;;5001948;28;20006;-91
2024/04/04 06:35:24;;;;;;;5.45;1.55;;;12.50;99.90;;;;;;5002120;28;20037;-86
2024/04/04 06:37:50;;;;;;;4.68;1.52;;;12.50;99.90;;;;;;5018546;28;20046;-91
2024/04/04 06:40:16;;;;;;;4.13;1.52;;;12.50;99.90;;;;;;4980420;28;20444;-90
2024/04/04 06:42:42;;;;;;;6.20;1.95;;;12.60;99.90;;;;;;4979039;28;20026;-92
2024/04/04 06:45:08;;;;;;;7.00;1.75;;;12.60;99.90;;;;;;4980887;28;20026;-90
2024/04/04 06:47:36;;;;;;;3.97;1.90;;;12.60;99.90;;;;;;4981793;28;20030;-91
2024/04/04 06:50:01;;;;;;;3.80;1.38;;;12.60;99.90;;;;;;4982370;28;20117;-90
2024/04/04 06:52:27;;;;;;;6.00;1.60;;;12.60;99.90;;;;;;5016103;28;20050;-91
2024/04/04 06:54:53;;;;;;;6.60;1.50;;;12.60;99.90;;;;;;4998304;28;20413;-93
2024/04/04 06:57:18;;;;;;;2.65;1.33;;;12.60;99.90;;;;;;4997621;28;20062;-92
2024/04/04 06:59:44;;;;;;;5.30;1.27;;;12.70;99.90;;;;;;5014916;28;20038;-92
2024/04/04 07:02:10;;;;;;;4.07;1.33;;;12.60;99.90;;;;;;4981401;28;20034;-91
2024/04/04 07:04:35;;;;;;;3.25;1.35;;;12.70;99.90;;;;;;4980920;28;20041;-92
2024/04/04 07:07:01;;;;;;;6.57;1.67;;;12.70;99.90;;;;;;4997546;28;20030;-90
2024/04/04 07:09:27;;;;;;;3.58;1.30;;;12.70;99.90;;;;;;4997195;28;20418;-90
2024/04/04 07:11:52;;;;;;;4.28;2.05;;;12.70;99.90;;;;;;5014670;28;20033;-90
2024/04/04 07:14:18;;;;;;;5.60;1.63;;;12.80;99.90;;;;;;4997905;28;20030;-89
2024/04/04 07:16:44;;;;;;;4.70;1.35;;;12.80;99.90;;;;;;4997289;28;20129;-90
2024/04/04 07:19:10;;;;;;;2.90;1.40;;;12.80;99.90;;;;;;5000490;28;20034;-91
2024/04/04 07:21:35;;;;;;;4.65;1.20;;;12.80;99.90;;;;;;5001356;28;20050;-92
2024/04/04 07:24:01;;;;;;;5.10;1.90;;;12.80;99.90;;;;;;5018620;28;20030;-91
2024/04/04 07:26:27;;;;;;;3.17;1.20;;;12.80;99.90;;;;;;5018700;28;20026;-91
2024/04/04 07:28:53;;;;;;;3.75;1.38;;;12.90;99.90;;;;;;4984713;28;20104;-89
2024/04/04 07:31:19;;;;;;;4.75;1.67;;;12.90;99.90;;;;;;5017462;28;20104;-90
2024/04/04 07:33:45;;;;;;;5.70;1.58;;;12.80;99.90;;;;;;5000647;28;20498;-91
2024/04/04 07:36:15;;;;;;;2.65;1.33;;;12.90;99.90;;;;;;5000882;28;20113;-90
2024/04/04 07:38:41;;;;;;;3.58;1.70;;;12.80;99.90;;;;;;5001003;28;20049;-91
2024/04/04 07:41:07;;;;;;;3.97;1.27;;;12.90;99.90;;;;;;5001046;28;20458;-90
2024/04/04 07:43:33;;;;;;;3.22;1.30;;;12.90;99.90;;;;;;5018878;28;20029;-89
2024/04/04 07:46:01;;;;;;;3.47;1.15;;;12.90;99.90;;;;;;5003026;28;20026;-91
2024/04/04 07:48:28;;;;;;;2.38;1.30;;;13.00;99.90;;;;;;4993152;28;20117;-89
2024/04/04 07:50:53;;;;;;;2.33;1.25;;;13.00;99.90;;;;;;5001054;28;20471;-90
2024/04/04 07:53:19;;;;;;;4.72;1.63;;;13.00;99.90;;;;;;4981547;28;20057;-89
2024/04/04 07:55:45;;;;;;;3.03;1.10;;;13.00;99.90;;;;;;4982171;28;20030;-90
2024/04/04 07:58:11;;;;;;;2.65;1.15;;;13.10;99.90;;;;;;4982691;28;20026;-89
2024/04/04 08:00:36;;;;;;;4.68;1.23;;;13.10;99.90;;;;;;4982317;28;20406;-89
2024/04/04 08:03:02;;;;;;;3.55;1.23;;;13.10;99.90;;;;;;4971957;28;20022;-89
2024/04/04 08:05:31;;;;;;;3.05;1.30;;;13.10;99.90;;;;;;5000664;28;20026;-86
2024/04/04 08:07:57;;;;;;;4.25;1.60;;;13.20;99.90;;;;;;5021655;28;20064;-90
2024/04/04 08:10:26;;;;;;;2.53;1.23;;;13.20;99.90;;;;;;4988237;28;20022;-91
2024/04/04 08:12:51;;;;;;;4.45;1.40;;;13.20;99.90;;;;;;5003854;28;20013;-90
2024/04/04 08:15:17;;;;;;;3.78;0.98;;;13.20;99.90;;;;;;5017830;28;20018;-90
2024/04/04 08:17:43;;;;;;;1.63;1.00;;;13.20;99.90;;;;;;5000420;28;20045;-90
2024/04/04 08:20:09;;;;;;;2.30;1.13;;;13.30;99.90;;;;;;5000798;28;20033;-90
2024/04/04 08:22:36;;;;;;;2.40;1.17;;;13.30;99.90;;;;;;5000149;28;20129;-90
2024/04/04 08:25:02;;;;;;;2.60;1.20;;;13.30;99.90;;;;;;5000020;28;20025;-89
2024/04/04 08:27:28;;;;;;;2.67;1.10;;;13.30;99.90;;;;;;4984092;28;20026;-90
2024/04/04 08:29:53;;;;;;;2.92;1.15;;;13.30;99.90;;;;;;4998435;28;20022;-90
2024/04/04 08:32:19;;;;;;;2.20;1.08;;;13.30;99.90;;;;;;4984041;28;20084;-89
2024/04/04 08:34:45;;;;;;;3.70;1.23;;;13.30;99.90;;;;;;4999271;28;20092;-91
2024/04/04 08:37:11;;;;;;;3.42;1.17;;;13.30;99.90;;;;;;4999552;28;20033;-89
2024/04/04 08:39:38;;;;;;;2.63;1.00;;;13.30;99.90;;;;;;4999662;28;20060;-89
2024/04/04 08:42:04;;;;;;;3.58;1.15;;;13.30;99.90;;;;;;4999936;28;20036;-92
2024/04/04 08:44:33;;;;;;;4.72;1.38;;;13.30;99.90;;;;;;4999395;28;20018;-90
2024/04/04 08:47:00;;;;;;;2.83;1.13;;;13.30;99.90;;;;;;4983370;28;20481;-89
2024/04/04 08:49:27;;;;;;;3.25;1.30;;;13.30;99.90;;;;;;4999412;28;20046;-91
2024/04/04 08:51:56;;;;;;;3.05;1.50;;;13.30;99.90;;;;;;4999510;28;20033;-91
2024/04/04 08:54:26;;;;;;;2.25;1.23;;;13.40;99.90;;;;;;4999613;28;20385;-89
2024/04/04 08:56:53;;;;;;;2.92;1.30;;;13.40;99.90;;;;;;5018208;28;20051;-90
2024/04/04 08:59:21;;;;;;;2.97;1.17;;;13.40;99.90;;;;;;4999987;28;20394;-90
2024/04/04 09:01:47;;;;;;;4.13;1.25;;;13.40;99.90;;;;;;4983437;28;20026;-88
2024/04/04 09:04:27;;;;;;;4.07;1.55;;;13.40;99.90;;;;;;4983225;28;20030;-90
2024/04/04 09:06:53;;;;;;;2.97;1.33;;;13.40;99.90;;;;;;4983024;28;20022;-90
2024/04/04 09:09:20;;;;;;;4.18;1.30;;;13.40;99.90;;;;;;4982926;28;20037;-90
2024/04/04 09:11:46;;;;;;;2.05;1.15;;;13.40;99.90;;;;;;4998519;28;20124;-89
2024/04/04 09:14:15;;;;;;;2.70;1.17;;;13.40;99.90;;;;;;4999272;28;20026;-89
2024/04/04 09:16:43;;;;;;;2.83;0.95;;;13.50;99.90;;;;;;4998768;28;20080;-88
2024/04/04 09:19:19;;;;;;;3.88;1.27;;;13.50;99.90;;;;;;4998936;28;20040;-90
2024/04/04 09:21:46;;;;;;;4.10;1.17;;;13.50;99.90;;;;;;5016187;28;20029;-88
2024/04/04 09:24:13;;;;;;;3.17;1.30;;;13.50;99.90;;;;;;4998840;28;20022;-89
2024/04/04 09:26:40;;;;;;;4.15;1.30;;;13.50;99.90;;;;;;4998709;28;20046;-89
2024/04/04 09:29:08;;;;;;;3.40;1.45;;;13.50;99.90;;;;;;4998861;28;20038;-90
2024/04/04 09:31:38;;;;;;;2.50;1.10;;;13.50;99.90;;;;;;5016141;28;20463;-90
2024/04/04 09:34:05;;;;;;;2.50;1.50;;;13.50;99.90;;;;;;4999472;28;20030;-89
2024/04/04 09:36:33;;;;;;;3.15;1.38;;;13.50;99.90;;;;;;4999366;28;20025;-90
2024/04/04 09:39:00;;;;;;;3.80;1.30;;;13.60;99.90;;;;;;5016460;28;20450;-93
2024/04/04 09:41:29;;;;;;;2.53;1.45;;;13.60;99.90;;;;;;4999954;28;20022;-91
2024/04/04 09:43:57;;;;;;;3.03;1.20;;;13.60;99.90;;;;;;5035204;28;20022;-91
2024/04/04 09:46:28;;;;;;;2.53;1.27;;;13.60;99.90;;;;;;5022312;28;20030;-90
2024/04/04 09:48:54;;;;;;;4.57;1.30;;;13.60;99.90;;;;;;5009317;28;20038;-88
2024/04/04 09:51:25;;;;;;;3.13;1.35;;;13.60;99.90;;;;;;4986578;28;20116;-93
2024/04/04 09:53:51;;;;;;;;;;;13.70;99.90;;;;;;4987390;28;20031;-89
2024/04/04 09:56:19;;;;;;;2.72;1.17;;;13.80;99.90;;;;;;5011861;28;19905;-91
2024/04/04 09:58:46;;;;;;;2.55;1.20;;;13.70;99.90;;;;;;4998581;28;20054;-90
2024/04/04 10:01:27;;;;;;;3.97;1.35;;;13.70;99.90;;;;;;4998435;28;20022;-91
2024/04/04 10:03:53;;;;;;;3.67;1.73;;;13.80;99.90;;;;;;4982194;28;20500;-89
2024/04/04 10:06:45;;;;;;;2.30;1.33;;;13.80;99.90;;;;;;4998080;28;20030;-88
2024/04/04 10:09:19;;;;;;;3.33;1.20;;;13.90;99.90;;;;;;4997561;28;20116;-91
2024/04/04 10:11:45;;;;;;;2.35;1.30;;;13.90;99.90;;;;;;4998799;28;20034;-89
2024/04/04 10:14:22;;;;;;;2.47;1.00;;;13.90;99.90;;;;;;4998260;28;20018;-89
2024/04/04 10:16:53;;;;;;;2.97;1.13;;;13.90;99.90;;;;;;4997673;28;20032;-90
2024/04/04 10:19:20;;;;;;;;;;;13.90;99.90;;;;;;4998921;28;20382;-91
2024/04/04 10:21:47;;;;;;;3.40;1.20;;;13.80;99.90;;;;;;4998895;28;19921;-91
2024/04/04 10:24:27;;;;;;;1.30;0.90;;;13.70;99.90;;;;;;4998967;28;20030;-89
2024/04/04 10:26:54;;;;;;;3.28;1.15;;;13.60;99.90;;;;;;4983117;28;20041;-90
2024/04/04 10:29:21;;;;;;;2.10;0.90;;;13.50;99.90;;;;;;4998913;28;20044;-90
2024/04/04 10:31:47;;;;;;;1.10;0.88;;;13.60;99.90;;;;;;4998605;28;20022;-90
2024/04/04 10:34:13;;;;;;;1.65;1.10;;;13.60;99.90;;;;;;4998966;28;20124;-90
2024/04/04 10:36:43;;;;;;;2.97;1.20;;;13.70;99.90;;;;;;4998626;28;20038;-90
2024/04/04 10:39:14;;;;;;;1.45;1.02;;;13.80;99.90;;;;;;4981938;28;20109;-90
2024/04/04 10:41:41;;;;;;;2.83;1.23;;;13.90;99.90;;;;;;5016260;28;20083;-90
2024/04/04 10:44:11;;;;;;;3.38;1.15;;;14.00;99.90;;;;;;5016354;28;20064;-90
2024/04/04 10:46:48;;;;;;;2.55;1.23;;;14.10;99.90;;;;;;5016511;28;20033;-89
2024/04/04 10:49:16;;;;;;;2.88;1.23;;;14.20;99.90;;;;;;5016279;28;20096;-89
2024/04/04 10:51:54;;;;;;;2.08;1.20;;;14.30;99.90;;;;;;4999052;28;20521;-89
2024/04/04 10:54:21;;;;;;;2.88;1.13;;;14.30;99.90;;;;;;4999670;28;20030;-92
2024/04/04 10:56:47;;;;;;;2.75;0.85;;;14.40;99.90;;;;;;4981946;28;20034;-89
2024/04/04 10:59:17;;;;;;;5.00;1.17;;;14.50;99.90;;;;;;4983137;28;20064;-90
2024/04/04 11:01:51;;;;;;;2.20;0.95;;;14.50;99.90;;;;;;4999476;28;20022;-91
2024/04/04 11:04:18;;;;;;;3.28;1.10;;;14.60;99.90;;;;;;4983207;28;20026;-90
2024/04/04 11:06:45;;;;;;;3.13;0.82;;;14.70;99.90;;;;;;4982682;28;20041;-89
2024/04/04 11:09:15;;;;;;;2.03;0.88;;;14.80;99.90;;;;;;4982030;28;20031;-89
2024/04/04 11:11:42;;;;;;;2.20;0.98;;;14.80;99.90;;;;;;5015866;28;20034;-90
2024/04/04 11:14:08;;;;;;;2.13;1.00;;;14.90;99.90;;;;;;5002997;28;20030;-89
2024/04/04 11:16:37;;;;;;;4.65;1.05;;;15.00;99.90;;;;;;5006852;28;20049;-90
2024/04/04 11:19:04;;;;;;;3.92;1.10;;;15.10;99.90;;;;;;5012110;28;20090;-89
2024/04/04 11:21:32;;;;;;;4.35;1.05;;;15.10;99.90;;;;;;5020723;28;20010;-88
2024/04/04 11:23:58;;;;;;;1.45;0.82;;;15.10;99.90;;;;;;5021195;28;20017;-85
2024/04/04 11:26:24;;;;;;;3.78;1.05;;;15.20;99.90;;;;;;5020909;28;20063;-90
2024/04/04 11:28:52;;;;;;;3.78;0.82;;;15.10;99.90;;;;;;5036874;28;20045;-91
2024/04/04 11:31:21;;;;;;;3.78;0.90;;;15.10;99.90;;;;;;5005052;28;20038;-90
2024/04/04 11:33:47;;;;;;;4.88;1.00;;;15.10;99.90;;;;;;4981240;28;20026;-90
2024/04/04 11:36:13;;;;;;;3.67;1.17;;;15.00;99.90;;;;;;4981360;28;20022;-90
2024/04/04 11:38:42;;;;;;;6.90;1.50;;;15.00;99.90;;;;;;4997142;28;20038;-90
2024/04/04 11:41:10;;;;;;;4.72;0.88;;;15.00;99.90;;;;;;4997164;28;20026;-88
2024/04/04 11:43:36;;;;;;;9.20;1.45;;;15.00;99.90;;;;;;4996848;28;20030;-89
2024/04/04 11:46:02;;;;;;;7.65;1.60;;;15.00;99.90;;;;;;4996813;28;20049;-88
2024/04/04 11:48:30;;;;;;;4.47;1.35;;;15.10;99.90;;;;;;4987629;28;20050;-90
2024/04/04 11:50:56;;;;;;;4.47;1.20;;;15.20;99.90;;;;;;4961244;28;20035;-90
2024/04/04 11:53:22;;;;;;;4.38;1.33;;;15.30;99.90;;;;;;4977507;28;20479;-87
2024/04/04 11:55:47;;;;;;;5.55;1.50;;;15.40;99.90;;;;;;4977541;28;20031;-89
2024/04/04 11:58:13;;;;;;;6.50;1.23;;;15.40;99.90;;;;;;4977338;28;20181;-86
2024/04/04 12:00:39;;;;;;;3.83;1.40;;;15.40;99.90;;;;;;4977652;28;20034;-87
2024/04/04 12:03:05;;;;;;;4.65;1.40;;;15.50;99.90;;;;;;4961283;28;20031;-89
2024/04/04 12:05:39;;;;;;;5.13;1.40;;;15.50;99.90;;;;;;4997501;28;20475;-89
2024/04/04 12:08:06;;;;;;;4.22;1.30;;;15.50;99.90;;;;;;4980562;28;20494;-90
2024/04/04 12:10:32;;;;;;;3.50;1.00;;;15.50;99.90;;;;;;4980562;28;20050;-88
2024/04/04 12:12:58;;;;;;;4.45;1.42;;;15.40;99.90;;;;;;4980753;28;20037;-88
2024/04/04 12:15:24;;;;;;;3.90;1.00;;;15.40;99.90;;;;;;4980799;28;20034;-89
2024/04/04 12:19:25;;;;;;;4.85;1.50;;;15.50;99.90;;;;;;4980566;28;20068;-88
2024/04/04 12:20:35;;;;;;;4.03;1.58;;;15.60;99.90;;;;;;4998408;28;20035;-90
2024/04/04 12:23:01;;;;;;;6.72;1.65;;;15.70;99.90;;;;;;4981028;28;20423;-89
2024/04/04 12:25:27;;;;;;;2.92;1.15;;;15.80;99.90;;;;;;4980817;28;20022;-89
2024/04/04 12:27:52;;;;;;;6.50;1.73;;;15.80;99.90;;;;;;4980878;28;20031;-88
2024/04/04 12:30:18;;;;;;;6.60;1.83;;;15.80;99.90;;;;;;4980423;28;20037;-89
2024/04/04 12:32:43;;;;;;;5.10;1.48;;;15.80;99.90;;;;;;4997953;28;20115;-90
2024/04/04 12:35:12;;;;;;;7.50;1.75;;;15.70;99.90;;;;;;4997342;28;20034;-86
2024/04/04 12:37:38;;;;;;;6.88;1.80;;;15.60;99.90;;;;;;4980102;28;20081;-87
2024/04/04 12:40:04;;;;;;;6.93;1.80;;;15.60;99.90;;;;;;4980385;28;20031;-88
2024/04/04 12:42:31;;;;;;;10.15;2.30;;;15.50;99.90;;;;;;4964990;28;20026;-88
2024/04/04 12:44:57;;;;;;;6.45;2.05;;;15.50;99.90;;;;;;4980506;28;20022;-88
2024/04/04 12:47:23;;;;;;;6.45;2.22;;;15.50;99.90;;;;;;4964628;28;20382;-88
2024/04/04 12:49:52;;;;;;;7.82;2.42;;;15.50;99.90;;;;;;5000019;28;20121;-88